sensor_id;sensor_type;location;lat;lon;timestamp;temperature;humidity
15554;DHT22;7878;44.632;10.942;2022-12-29T00:01:25;12.30;99.90
15554;DHT22;7878;44.632;10.942;2022-12-29T00:03:51;12.40;99.90
15554;DHT22;7878;44.632;10.942;2022-12-29T00:06:17;12.40;99.90
15554;DHT22;7878;44.632;10.942;2022-12-29T00:08:42;12.40;99.90
15554;DHT22;7878;44.632;10.942;2022-12-29T00:11:16;12.40;99.90
15554;DHT22;7878;44.632;10.942;2022-12-29T00:13:42;12.40;99.90
15554;DHT22;7878;44.632;10.942;2022-12-29T00:16:28;12.40;99.90
15554;DHT22;7878;44.632;10.942;2022-12-29T00:18:54;12.40;99.90
15554;DHT22;7878;44.632;10.942;2022-12-29T00:21:22;12.30;99.90
15554;DHT22;7878;44.632;10.942;2022-12-29T00:24:16;12.30;99.90
15554;DHT22;7878;44.632;10.942;2022-12-29T00:29:44;12.30;99.90
15554;DHT22;7878;44.632;10.942;2022-12-29T00:32:28;12.20;99.90
15554;DHT22;7878;44.632;10.942;2022-12-29T00:35:17;12.20;99.90
15554;DHT22;7878;44.632;10.942;2022-12-29T00:37:46;12.20;99.90
15554;DHT22;7878;44.632;10.942;2022-12-29T00:40:30;12.20;99.90
15554;DHT22;7878;44.632;10.942;2022-12-29T00:43:14;12.10;99.90
15554;DHT22;7878;44.632;10.942;2022-12-29T00:45:58;12.10;99.90
15554;DHT22;7878;44.632;10.942;2022-12-29T00:48:24;12.10;99.90
15554;DHT22;7878;44.632;10.942;2022-12-29T00:51:08;12.10;99.90
15554;DHT22;7878;44.632;10.942;2022-12-29T00:53:34;12.10;99.90
15554;DHT22;7878;44.632;10.942;2022-12-29T00:56:00;12.00;99.90
15554;DHT22;7878;44.632;10.942;2022-12-29T00:58:30;12.00;99.90
15554;DHT22;7878;44.632;10.942;2022-12-29T01:01:03;12.00;99.90
15554;DHT22;7878;44.632;10.942;2022-12-29T01:03:30;12.10;99.90
15554;DHT22;7878;44.632;10.942;2022-12-29T01:05:56;12.00;99.90
15554;DHT22;7878;44.632;10.942;2022-12-29T01:08:22;12.00;99.90
15554;DHT22;7878;44.632;10.942;2022-12-29T01:10:58;12.00;99.90
15554;DHT22;7878;44.632;10.942;2022-12-29T01:13:24;12.00;99.90
15554;DHT22;7878;44.632;10.942;2022-12-29T01:15:51;12.00;99.90
15554;DHT22;7878;44.632;10.942;2022-12-29T01:18:16;12.00;99.90
15554;DHT22;7878;44.632;10.942;2022-12-29T01:20:42;12.10;99.90
15554;DHT22;7878;44.632;10.942;2022-12-29T01:23:07;12.10;99.90
15554;DHT22;7878;44.632;10.942;2022-12-29T01:25:33;12.10;99.90
15554;DHT22;7878;44.632;10.942;2022-12-29T01:27:58;12.10;99.90
15554;DHT22;7878;44.632;10.942;2022-12-29T01:30:24;12.20;99.90
15554;DHT22;7878;44.632;10.942;2022-12-29T01:32:50;12.20;99.90
15554;DHT22;7878;44.632;10.942;2022-12-29T01:35:15;12.20;99.90
15554;DHT22;7878;44.632;10.942;2022-12-29T01:37:41;12.10;99.90
15554;DHT22;7878;44.632;10.942;2022-12-29T01:40:07;12.20;99.90
15554;DHT22;7878;44.632;10.942;2022-12-29T01:42:33;12.10;99.90
15554;DHT22;7878;44.632;10.942;2022-12-29T01:45:15;12.10;99.90
15554;DHT22;7878;44.632;10.942;2022-12-29T01:47:56;12.10;99.90
15554;DHT22;7878;44.632;10.942;2022-12-29T01:50:30;12.10;99.90
15554;DHT22;7878;44.632;10.942;2022-12-29T01:53:13;12.00;99.90
15554;DHT22;7878;44.632;10.942;2022-12-29T01:55:46;12.00;99.90
15554;DHT22;7878;44.632;10.942;2022-12-29T01:58:15;12.00;99.90
15554;DHT22;7878;44.632;10.942;2022-12-29T02:00:41;12.10;99.90
15554;DHT22;7878;44.632;10.942;2022-12-29T02:03:07;12.10;99.90
15554;DHT22;7878;44.632;10.942;2022-12-29T02:08:27;12.20;99.90
15554;DHT22;7878;44.632;10.942;2022-12-29T02:10:54;12.20;99.90
15554;DHT22;7878;44.632;10.942;2022-12-29T02:13:20;12.20;99.90
15554;DHT22;7878;44.632;10.942;2022-12-29T02:32:07;12.20;99.90
15554;DHT22;7878;44.632;10.942;2022-12-29T02:42:55;12.10;99.90
15554;DHT22;7878;44.632;10.942;2022-12-29T02:48:19;12.10;99.90
15554;DHT22;7878;44.632;10.942;2022-12-29T02:50:58;12.20;99.90
15554;DHT22;7878;44.632;10.942;2022-12-29T02:53:25;12.20;99.90
15554;DHT22;7878;44.632;10.942;2022-12-29T02:56:10;12.20;99.90
15554;DHT22;7878;44.632;10.942;2022-12-29T02:58:35;12.10;99.90
15554;DHT22;7878;44.632;10.942;2022-12-29T03:07:30;12.20;99.90
15554;DHT22;7878;44.632;10.942;2022-12-29T03:15:34;12.20;99.90
15554;DHT22;7878;44.632;10.942;2022-12-29T03:18:37;12.10;99.90
15554;DHT22;7878;44.632;10.942;2022-12-29T03:21:16;12.10;99.90
15554;DHT22;7878;44.632;10.942;2022-12-29T03:23:45;12.10;99.90
15554;DHT22;7878;44.632;10.942;2022-12-29T03:26:15;12.20;99.90
15554;DHT22;7878;44.632;10.942;2022-12-29T03:28:50;12.20;99.90
15554;DHT22;7878;44.632;10.942;2022-12-29T03:31:17;12.20;99.90
15554;DHT22;7878;44.632;10.942;2022-12-29T03:33:44;12.20;99.90
15554;DHT22;7878;44.632;10.942;2022-12-29T03:36:17;12.20;99.90
15554;DHT22;7878;44.632;10.942;2022-12-29T03:38:59;12.20;99.90
15554;DHT22;7878;44.632;10.942;2022-12-29T03:41:30;12.20;99.90
15554;DHT22;7878;44.632;10.942;2022-12-29T03:43:56;12.20;99.90
15554;DHT22;7878;44.632;10.942;2022-12-29T03:46:22;12.10;99.90
15554;DHT22;7878;44.632;10.942;2022-12-29T03:48:48;12.10;99.90
15554;DHT22;7878;44.632;10.942;2022-12-29T03:51:13;12.10;99.90
15554;DHT22;7878;44.632;10.942;2022-12-29T03:53:39;12.10;99.90
15554;DHT22;7878;44.632;10.942;2022-12-29T03:56:05;12.10;99.90
15554;DHT22;7878;44.632;10.942;2022-12-29T03:58:30;12.20;99.90
15554;DHT22;7878;44.632;10.942;2022-12-29T04:00:56;12.10;99.90
15554;DHT22;7878;44.632;10.942;2022-12-29T04:03:22;12.10;99.90
15554;DHT22;7878;44.632;10.942;2022-12-29T04:05:48;12.10;99.90
15554;DHT22;7878;44.632;10.942;2022-12-29T04:08:13;12.10;99.90
15554;DHT22;7878;44.632;10.942;2022-12-29T04:10:39;12.10;99.90
15554;DHT22;7878;44.632;10.942;2022-12-29T04:13:05;12.10;99.90
15554;DHT22;7878;44.632;10.942;2022-12-29T04:15:30;12.20;99.90
15554;DHT22;7878;44.632;10.942;2022-12-29T04:17:56;12.20;99.90
15554;DHT22;7878;44.632;10.942;2022-12-29T04:20:22;12.20;99.90
15554;DHT22;7878;44.632;10.942;2022-12-29T04:23:06;12.20;99.90
15554;DHT22;7878;44.632;10.942;2022-12-29T04:25:32;12.20;99.90
15554;DHT22;7878;44.632;10.942;2022-12-29T04:27:58;12.20;99.90
15554;DHT22;7878;44.632;10.942;2022-12-29T04:30:24;12.20;99.90
15554;DHT22;7878;44.632;10.942;2022-12-29T04:32:50;12.20;99.90
15554;DHT22;7878;44.632;10.942;2022-12-29T04:35:16;12.20;99.90
15554;DHT22;7878;44.632;10.942;2022-12-29T04:37:42;12.20;99.90
15554;DHT22;7878;44.632;10.942;2022-12-29T04:40:08;12.20;99.90
15554;DHT22;7878;44.632;10.942;2022-12-29T04:42:34;12.20;99.90
15554;DHT22;7878;44.632;10.942;2022-12-29T04:44:59;12.20;99.90
15554;DHT22;7878;44.632;10.942;2022-12-29T04:47:25;12.20;99.90
15554;DHT22;7878;44.632;10.942;2022-12-29T04:49:51;12.20;99.90
15554;DHT22;7878;44.632;10.942;2022-12-29T04:52:16;12.20;99.90
15554;DHT22;7878;44.632;10.942;2022-12-29T04:54:42;12.20;99.90
15554;DHT22;7878;44.632;10.942;2022-12-29T04:57:08;12.20;99.90
15554;DHT22;7878;44.632;10.942;2022-12-29T04:59:33;12.20;99.90
15554;DHT22;7878;44.632;10.942;2022-12-29T05:01:59;12.20;99.90
15554;DHT22;7878;44.632;10.942;2022-12-29T05:04:25;12.20;99.90
15554;DHT22;7878;44.632;10.942;2022-12-29T05:06:50;12.20;99.90
15554;DHT22;7878;44.632;10.942;2022-12-29T05:09:16;12.30;99.90
15554;DHT22;7878;44.632;10.942;2022-12-29T05:11:41;12.30;99.90
15554;DHT22;7878;44.632;10.942;2022-12-29T05:14:07;12.30;99.90
15554;DHT22;7878;44.632;10.942;2022-12-29T05:16:33;12.20;99.90
15554;DHT22;7878;44.632;10.942;2022-12-29T05:18:58;12.30;99.90
15554;DHT22;7878;44.632;10.942;2022-12-29T05:21:24;12.20;99.90
15554;DHT22;7878;44.632;10.942;2022-12-29T05:23:50;12.20;99.90
15554;DHT22;7878;44.632;10.942;2022-12-29T05:26:15;12.20;99.90
15554;DHT22;7878;44.632;10.942;2022-12-29T05:28:41;12.20;99.90
15554;DHT22;7878;44.632;10.942;2022-12-29T05:31:07;12.30;99.90
15554;DHT22;7878;44.632;10.942;2022-12-29T05:33:32;12.20;99.90
15554;DHT22;7878;44.632;10.942;2022-12-29T05:36:04;12.20;99.90
15554;DHT22;7878;44.632;10.942;2022-12-29T05:38:30;12.20;99.90
15554;DHT22;7878;44.632;10.942;2022-12-29T05:40:55;12.20;99.90
15554;DHT22;7878;44.632;10.942;2022-12-29T05:43:21;12.20;99.90
15554;DHT22;7878;44.632;10.942;2022-12-29T05:45:49;12.20;99.90
15554;DHT22;7878;44.632;10.942;2022-12-29T05:48:15;12.20;99.90
15554;DHT22;7878;44.632;10.942;2022-12-29T05:50:41;12.20;99.90
15554;DHT22;7878;44.632;10.942;2022-12-29T05:53:06;12.20;99.90
15554;DHT22;7878;44.632;10.942;2022-12-29T05:55:32;12.20;99.90
15554;DHT22;7878;44.632;10.942;2022-12-29T05:57:58;12.20;99.90
15554;DHT22;7878;44.632;10.942;2022-12-29T06:00:23;12.20;99.90
15554;DHT22;7878;44.632;10.942;2022-12-29T06:02:49;12.20;99.90
15554;DHT22;7878;44.632;10.942;2022-12-29T06:05:15;12.20;99.90
15554;DHT22;7878;44.632;10.942;2022-12-29T06:07:41;12.20;99.90
15554;DHT22;7878;44.632;10.942;2022-12-29T06:10:07;12.20;99.90
15554;DHT22;7878;44.632;10.942;2022-12-29T06:12:33;12.20;99.90
15554;DHT22;7878;44.632;10.942;2022-12-29T06:14:58;12.20;99.90
15554;DHT22;7878;44.632;10.942;2022-12-29T06:17:24;12.20;99.90
15554;DHT22;7878;44.632;10.942;2022-12-29T06:19:50;12.10;99.90
15554;DHT22;7878;44.632;10.942;2022-12-29T06:22:15;12.20;99.90
15554;DHT22;7878;44.632;10.942;2022-12-29T06:24:41;12.20;99.90
15554;DHT22;7878;44.632;10.942;2022-12-29T06:27:07;12.20;99.90
15554;DHT22;7878;44.632;10.942;2022-12-29T06:29:32;12.10;99.90
15554;DHT22;7878;44.632;10.942;2022-12-29T06:31:58;12.20;99.90
15554;DHT22;7878;44.632;10.942;2022-12-29T06:34:24;12.20;99.90
15554;DHT22;7878;44.632;10.942;2022-12-29T06:36:50;12.20;99.90
15554;DHT22;7878;44.632;10.942;2022-12-29T06:39:16;12.10;99.90
15554;DHT22;7878;44.632;10.942;2022-12-29T06:41:42;12.20;99.90
15554;DHT22;7878;44.632;10.942;2022-12-29T06:44:07;12.20;99.90
15554;DHT22;7878;44.632;10.942;2022-12-29T06:46:33;12.10;99.90
15554;DHT22;7878;44.632;10.942;2022-12-29T06:48:59;12.10;99.90
15554;DHT22;7878;44.632;10.942;2022-12-29T06:51:24;12.10;99.90
15554;DHT22;7878;44.632;10.942;2022-12-29T06:53:50;12.20;99.90
15554;DHT22;7878;44.632;10.942;2022-12-29T06:56:15;12.20;99.90
15554;DHT22;7878;44.632;10.942;2022-12-29T06:58:41;12.20;99.90
15554;DHT22;7878;44.632;10.942;2022-12-29T07:01:07;12.20;99.90
15554;DHT22;7878;44.632;10.942;2022-12-29T07:03:32;12.20;99.90
15554;DHT22;7878;44.632;10.942;2022-12-29T07:05:58;12.20;99.90
15554;DHT22;7878;44.632;10.942;2022-12-29T07:08:24;12.10;99.90
15554;DHT22;7878;44.632;10.942;2022-12-29T07:10:50;12.10;99.90
15554;DHT22;7878;44.632;10.942;2022-12-29T07:13:15;12.20;99.90
15554;DHT22;7878;44.632;10.942;2022-12-29T07:15:41;12.20;99.90
15554;DHT22;7878;44.632;10.942;2022-12-29T07:18:07;12.10;99.90
15554;DHT22;7878;44.632;10.942;2022-12-29T07:20:32;12.10;99.90
15554;DHT22;7878;44.632;10.942;2022-12-29T07:22:58;12.20;99.90
15554;DHT22;7878;44.632;10.942;2022-12-29T07:25:24;12.20;99.90
15554;DHT22;7878;44.632;10.942;2022-12-29T07:27:49;12.20;99.90
15554;DHT22;7878;44.632;10.942;2022-12-29T07:30:15;12.20;99.90
15554;DHT22;7878;44.632;10.942;2022-12-29T07:32:41;12.20;99.90
15554;DHT22;7878;44.632;10.942;2022-12-29T07:35:07;12.20;99.90
15554;DHT22;7878;44.632;10.942;2022-12-29T07:37:33;12.20;99.90
15554;DHT22;7878;44.632;10.942;2022-12-29T07:40:01;12.20;99.90
15554;DHT22;7878;44.632;10.942;2022-12-29T07:42:26;12.20;99.90
15554;DHT22;7878;44.632;10.942;2022-12-29T07:44:52;12.20;99.90
15554;DHT22;7878;44.632;10.942;2022-12-29T07:47:18;12.20;99.90
15554;DHT22;7878;44.632;10.942;2022-12-29T07:49:43;12.20;99.90
15554;DHT22;7878;44.632;10.942;2022-12-29T07:52:09;12.10;99.90
15554;DHT22;7878;44.632;10.942;2022-12-29T07:54:35;12.10;99.90
15554;DHT22;7878;44.632;10.942;2022-12-29T07:57:00;12.10;99.90
15554;DHT22;7878;44.632;10.942;2022-12-29T07:59:26;12.10;99.90
15554;DHT22;7878;44.632;10.942;2022-12-29T08:01:52;12.10;99.90
15554;DHT22;7878;44.632;10.942;2022-12-29T08:04:18;12.10;99.90
15554;DHT22;7878;44.632;10.942;2022-12-29T08:06:44;12.10;99.90
15554;DHT22;7878;44.632;10.942;2022-12-29T08:09:11;12.10;99.90
15554;DHT22;7878;44.632;10.942;2022-12-29T08:11:36;12.10;99.90
15554;DHT22;7878;44.632;10.942;2022-12-29T08:14:03;12.10;99.90
15554;DHT22;7878;44.632;10.942;2022-12-29T08:16:28;12.10;99.90
15554;DHT22;7878;44.632;10.942;2022-12-29T08:18:54;12.20;99.90
15554;DHT22;7878;44.632;10.942;2022-12-29T08:21:20;12.10;99.90
15554;DHT22;7878;44.632;10.942;2022-12-29T08:23:46;12.10;99.90
15554;DHT22;7878;44.632;10.942;2022-12-29T08:26:12;12.20;99.90
15554;DHT22;7878;44.632;10.942;2022-12-29T08:28:38;12.10;99.90
15554;DHT22;7878;44.632;10.942;2022-12-29T08:31:04;12.10;99.90
15554;DHT22;7878;44.632;10.942;2022-12-29T08:33:30;12.10;99.90
15554;DHT22;7878;44.632;10.942;2022-12-29T08:36:00;12.10;99.90
15554;DHT22;7878;44.632;10.942;2022-12-29T08:38:27;12.10;99.90
15554;DHT22;7878;44.632;10.942;2022-12-29T08:40:53;12.10;99.90
15554;DHT22;7878;44.632;10.942;2022-12-29T08:43:19;12.10;99.90
15554;DHT22;7878;44.632;10.942;2022-12-29T08:45:45;12.20;99.90
15554;DHT22;7878;44.632;10.942;2022-12-29T08:48:10;12.20;99.90
15554;DHT22;7878;44.632;10.942;2022-12-29T08:50:36;12.20;99.90
15554;DHT22;7878;44.632;10.942;2022-12-29T08:53:02;12.20;99.90
15554;DHT22;7878;44.632;10.942;2022-12-29T08:55:27;12.20;99.90
15554;DHT22;7878;44.632;10.942;2022-12-29T08:57:53;12.20;99.90
15554;DHT22;7878;44.632;10.942;2022-12-29T09:00:19;12.20;99.90
15554;DHT22;7878;44.632;10.942;2022-12-29T09:02:45;12.20;99.90
15554;DHT22;7878;44.632;10.942;2022-12-29T09:05:11;12.20;99.90
15554;DHT22;7878;44.632;10.942;2022-12-29T09:07:37;12.20;99.90
15554;DHT22;7878;44.632;10.942;2022-12-29T09:10:03;12.20;99.90
15554;DHT22;7878;44.632;10.942;2022-12-29T09:12:29;12.20;99.90
15554;DHT22;7878;44.632;10.942;2022-12-29T09:14:54;12.20;99.90
15554;DHT22;7878;44.632;10.942;2022-12-29T09:17:20;12.20;99.90
15554;DHT22;7878;44.632;10.942;2022-12-29T09:20:05;12.20;99.90
15554;DHT22;7878;44.632;10.942;2022-12-29T09:22:31;12.20;99.90
15554;DHT22;7878;44.632;10.942;2022-12-29T09:24:56;12.20;99.90
15554;DHT22;7878;44.632;10.942;2022-12-29T09:27:22;12.30;99.90
15554;DHT22;7878;44.632;10.942;2022-12-29T09:29:48;12.30;99.90
15554;DHT22;7878;44.632;10.942;2022-12-29T09:32:13;12.30;99.90
15554;DHT22;7878;44.632;10.942;2022-12-29T09:34:39;12.30;99.90
15554;DHT22;7878;44.632;10.942;2022-12-29T09:37:04;12.30;99.90
15554;DHT22;7878;44.632;10.942;2022-12-29T09:39:30;12.30;99.90
15554;DHT22;7878;44.632;10.942;2022-12-29T09:44:46;12.30;99.90
15554;DHT22;7878;44.632;10.942;2022-12-29T09:47:14;12.40;99.90
15554;DHT22;7878;44.632;10.942;2022-12-29T09:49:50;12.30;99.90
15554;DHT22;7878;44.632;10.942;2022-12-29T09:52:22;12.40;99.90
15554;DHT22;7878;44.632;10.942;2022-12-29T09:57:27;12.40;99.90
15554;DHT22;7878;44.632;10.942;2022-12-29T10:00:00;12.40;99.90
15554;DHT22;7878;44.632;10.942;2022-12-29T10:02:54;12.40;99.90
15554;DHT22;7878;44.632;10.942;2022-12-29T10:10:59;12.50;99.90
15554;DHT22;7878;44.632;10.942;2022-12-29T10:13:36;12.50;99.90
15554;DHT22;7878;44.632;10.942;2022-12-29T10:16:23;12.40;99.90
15554;DHT22;7878;44.632;10.942;2022-12-29T10:24:39;13.00;99.90
15554;DHT22;7878;44.632;10.942;2022-12-29T10:27:10;13.50;99.90
15554;DHT22;7878;44.632;10.942;2022-12-29T10:29:43;13.70;99.90
15554;DHT22;7878;44.632;10.942;2022-12-29T10:32:38;13.80;99.90
15554;DHT22;7878;44.632;10.942;2022-12-29T10:35:26;13.90;99.90
15554;DHT22;7878;44.632;10.942;2022-12-29T10:40:40;14.50;99.90
15554;DHT22;7878;44.632;10.942;2022-12-29T10:43:31;14.50;99.90
15554;DHT22;7878;44.632;10.942;2022-12-29T10:46:06;14.30;99.90
15554;DHT22;7878;44.632;10.942;2022-12-29T10:48:35;14.20;99.90
15554;DHT22;7878;44.632;10.942;2022-12-29T10:51:04;14.10;99.90
15554;DHT22;7878;44.632;10.942;2022-12-29T10:53:37;14.00;99.90
15554;DHT22;7878;44.632;10.942;2022-12-29T10:56:14;13.90;99.90
15554;DHT22;7878;44.632;10.942;2022-12-29T10:58:41;13.80;99.90
15554;DHT22;7878;44.632;10.942;2022-12-29T11:01:09;13.80;99.90
15554;DHT22;7878;44.632;10.942;2022-12-29T11:03:58;14.80;99.90
15554;DHT22;7878;44.632;10.942;2022-12-29T11:06:27;15.20;99.90
15554;DHT22;7878;44.632;10.942;2022-12-29T11:09:08;14.90;99.90
15554;DHT22;7878;44.632;10.942;2022-12-29T11:11:36;14.70;99.90
15554;DHT22;7878;44.632;10.942;2022-12-29T11:14:14;14.70;99.90
15554;DHT22;7878;44.632;10.942;2022-12-29T11:16:43;14.80;99.90
15554;DHT22;7878;44.632;10.942;2022-12-29T11:19:21;14.60;99.90
15554;DHT22;7878;44.632;10.942;2022-12-29T11:21:47;14.40;99.90
15554;DHT22;7878;44.632;10.942;2022-12-29T11:26:50;14.00;99.90
15554;DHT22;7878;44.632;10.942;2022-12-29T11:29:27;13.90;99.90
15554;DHT22;7878;44.632;10.942;2022-12-29T11:31:58;13.80;99.90
15554;DHT22;7878;44.632;10.942;2022-12-29T11:34:33;13.70;99.90
15554;DHT22;7878;44.632;10.942;2022-12-29T11:37:06;13.70;99.90
15554;DHT22;7878;44.632;10.942;2022-12-29T11:40:03;13.60;99.90
15554;DHT22;7878;44.632;10.942;2022-12-29T11:42:41;13.40;99.90
15554;DHT22;7878;44.632;10.942;2022-12-29T11:47:49;13.20;99.90
15554;DHT22;7878;44.632;10.942;2022-12-29T11:50:20;13.10;99.90
15554;DHT22;7878;44.632;10.942;2022-12-29T11:52:48;13.10;99.90
15554;DHT22;7878;44.632;10.942;2022-12-29T11:55:21;13.00;99.90
15554;DHT22;7878;44.632;10.942;2022-12-29T11:57:48;13.00;99.90
15554;DHT22;7878;44.632;10.942;2022-12-29T12:00:16;13.00;99.90
15554;DHT22;7878;44.632;10.942;2022-12-29T12:02:50;12.90;99.90
15554;DHT22;7878;44.632;10.942;2022-12-29T12:08:11;12.90;99.90
15554;DHT22;7878;44.632;10.942;2022-12-29T12:10:46;12.90;99.90
15554;DHT22;7878;44.632;10.942;2022-12-29T12:13:35;12.90;99.90
15554;DHT22;7878;44.632;10.942;2022-12-29T12:16:07;12.90;99.90
15554;DHT22;7878;44.632;10.942;2022-12-29T12:18:45;12.90;99.90
15554;DHT22;7878;44.632;10.942;2022-12-29T12:21:20;12.90;99.90
15554;DHT22;7878;44.632;10.942;2022-12-29T12:26:43;12.80;99.90
15554;DHT22;7878;44.632;10.942;2022-12-29T12:32:27;12.80;99.90
15554;DHT22;7878;44.632;10.942;2022-12-29T12:34:56;12.80;99.90
15554;DHT22;7878;44.632;10.942;2022-12-29T12:37:43;12.80;99.90
15554;DHT22;7878;44.632;10.942;2022-12-29T12:40:30;12.80;99.90
15554;DHT22;7878;44.632;10.942;2022-12-29T12:43:36;12.80;99.90
15554;DHT22;7878;44.632;10.942;2022-12-29T13:00:14;12.90;99.90
15554;DHT22;7878;44.632;10.942;2022-12-29T13:03:10;12.80;99.90
15554;DHT22;7878;44.632;10.942;2022-12-29T13:16:06;12.80;99.90
15554;DHT22;7878;44.632;10.942;2022-12-29T13:18:42;12.80;99.90
15554;DHT22;7878;44.632;10.942;2022-12-29T13:26:54;12.80;99.90
15554;DHT22;7878;44.632;10.942;2022-12-29T13:29:41;12.80;99.90
15554;DHT22;7878;44.632;10.942;2022-12-29T13:35:11;12.80;99.90
15554;DHT22;7878;44.632;10.942;2022-12-29T13:37:52;12.70;99.90
15554;DHT22;7878;44.632;10.942;2022-12-29T13:40:23;12.70;99.90
15554;DHT22;7878;44.632;10.942;2022-12-29T13:42:50;12.70;99.90
15554;DHT22;7878;44.632;10.942;2022-12-29T13:45:23;12.70;99.90
15554;DHT22;7878;44.632;10.942;2022-12-29T13:48:14;12.70;99.90
15554;DHT22;7878;44.632;10.942;2022-12-29T13:50:44;12.80;99.90
15554;DHT22;7878;44.632;10.942;2022-12-29T13:56:09;12.80;99.90
15554;DHT22;7878;44.632;10.942;2022-12-29T14:01:28;12.80;99.90
15554;DHT22;7878;44.632;10.942;2022-12-29T14:03:57;12.80;99.90
15554;DHT22;7878;44.632;10.942;2022-12-29T14:09:00;12.70;99.90
15554;DHT22;7878;44.632;10.942;2022-12-29T14:11:36;12.70;99.90
15554;DHT22;7878;44.632;10.942;2022-12-29T14:14:21;12.70;99.90
15554;DHT22;7878;44.632;10.942;2022-12-29T14:16:48;12.80;99.90
15554;DHT22;7878;44.632;10.942;2022-12-29T14:19:19;12.80;99.90
15554;DHT22;7878;44.632;10.942;2022-12-29T14:22:02;12.80;99.90
15554;DHT22;7878;44.632;10.942;2022-12-29T14:37:34;12.70;99.90
15554;DHT22;7878;44.632;10.942;2022-12-29T14:40:18;12.70;99.90
15554;DHT22;7878;44.632;10.942;2022-12-29T14:42:48;12.70;99.90
15554;DHT22;7878;44.632;10.942;2022-12-29T14:47:47;12.60;99.90
15554;DHT22;7878;44.632;10.942;2022-12-29T14:50:14;12.60;99.90
15554;DHT22;7878;44.632;10.942;2022-12-29T14:58:02;12.60;99.90
15554;DHT22;7878;44.632;10.942;2022-12-29T15:00:34;12.60;99.90
15554;DHT22;7878;44.632;10.942;2022-12-29T15:08:19;12.60;99.90
15554;DHT22;7878;44.632;10.942;2022-12-29T15:11:01;12.60;99.90
15554;DHT22;7878;44.632;10.942;2022-12-29T15:13:37;12.60;99.90
15554;DHT22;7878;44.632;10.942;2022-12-29T15:16:05;12.60;99.90
15554;DHT22;7878;44.632;10.942;2022-12-29T15:18:32;12.60;99.90
15554;DHT22;7878;44.632;10.942;2022-12-29T15:21:00;12.50;99.90
15554;DHT22;7878;44.632;10.942;2022-12-29T15:23:27;12.50;99.90
15554;DHT22;7878;44.632;10.942;2022-12-29T15:26:07;12.50;99.90
15554;DHT22;7878;44.632;10.942;2022-12-29T15:28:52;12.50;99.90
15554;DHT22;7878;44.632;10.942;2022-12-29T15:31:24;12.50;99.90
15554;DHT22;7878;44.632;10.942;2022-12-29T15:33:52;12.50;99.90
15554;DHT22;7878;44.632;10.942;2022-12-29T15:36:21;12.50;99.90
15554;DHT22;7878;44.632;10.942;2022-12-29T15:38:48;12.50;99.90
15554;DHT22;7878;44.632;10.942;2022-12-29T15:44:16;12.50;99.90
15554;DHT22;7878;44.632;10.942;2022-12-29T15:46:42;12.50;99.90
15554;DHT22;7878;44.632;10.942;2022-12-29T15:49:11;12.50;99.90
15554;DHT22;7878;44.632;10.942;2022-12-29T15:51:39;12.50;99.90
15554;DHT22;7878;44.632;10.942;2022-12-29T15:54:06;12.50;99.90
15554;DHT22;7878;44.632;10.942;2022-12-29T15:56:40;12.50;99.90
15554;DHT22;7878;44.632;10.942;2022-12-29T15:59:26;12.50;99.90
15554;DHT22;7878;44.632;10.942;2022-12-29T16:01:57;12.50;99.90
15554;DHT22;7878;44.632;10.942;2022-12-29T16:04:25;12.50;99.90
15554;DHT22;7878;44.632;10.942;2022-12-29T16:07:04;12.50;99.90
15554;DHT22;7878;44.632;10.942;2022-12-29T16:09:34;12.50;99.90
15554;DHT22;7878;44.632;10.942;2022-12-29T16:12:13;12.50;99.90
15554;DHT22;7878;44.632;10.942;2022-12-29T16:14:42;12.50;99.90
15554;DHT22;7878;44.632;10.942;2022-12-29T16:17:13;12.50;99.90
15554;DHT22;7878;44.632;10.942;2022-12-29T16:19:42;12.50;99.90
15554;DHT22;7878;44.632;10.942;2022-12-29T16:22:29;12.50;99.90
15554;DHT22;7878;44.632;10.942;2022-12-29T16:27:46;12.40;99.90
15554;DHT22;7878;44.632;10.942;2022-12-29T16:30:22;12.40;99.90
15554;DHT22;7878;44.632;10.942;2022-12-29T16:32:53;12.40;99.90
15554;DHT22;7878;44.632;10.942;2022-12-29T16:35:24;12.40;99.90
15554;DHT22;7878;44.632;10.942;2022-12-29T16:38:18;12.40;99.90
15554;DHT22;7878;44.632;10.942;2022-12-29T16:41:00;12.40;99.90
15554;DHT22;7878;44.632;10.942;2022-12-29T16:43:30;12.40;99.90
15554;DHT22;7878;44.632;10.942;2022-12-29T16:51:15;12.40;99.90
15554;DHT22;7878;44.632;10.942;2022-12-29T16:53:48;12.40;99.90
15554;DHT22;7878;44.632;10.942;2022-12-29T16:56:18;12.40;99.90
15554;DHT22;7878;44.632;10.942;2022-12-29T16:58:49;12.40;99.90
15554;DHT22;7878;44.632;10.942;2022-12-29T17:01:16;12.40;99.90
15554;DHT22;7878;44.632;10.942;2022-12-29T17:03:49;12.40;99.90
15554;DHT22;7878;44.632;10.942;2022-12-29T17:06:21;12.30;99.90
15554;DHT22;7878;44.632;10.942;2022-12-29T17:08:48;12.30;99.90
15554;DHT22;7878;44.632;10.942;2022-12-29T17:11:40;12.40;99.90
15554;DHT22;7878;44.632;10.942;2022-12-29T17:14:30;12.40;99.90
15554;DHT22;7878;44.632;10.942;2022-12-29T17:16:56;12.30;99.90
15554;DHT22;7878;44.632;10.942;2022-12-29T17:19:32;12.30;99.90
15554;DHT22;7878;44.632;10.942;2022-12-29T17:21:58;12.30;99.90
15554;DHT22;7878;44.632;10.942;2022-12-29T17:24:24;12.30;99.90
15554;DHT22;7878;44.632;10.942;2022-12-29T17:26:52;12.40;99.90
15554;DHT22;7878;44.632;10.942;2022-12-29T17:29:39;12.30;99.90
15554;DHT22;7878;44.632;10.942;2022-12-29T17:32:10;12.30;99.90
15554;DHT22;7878;44.632;10.942;2022-12-29T17:34:37;12.20;99.90
15554;DHT22;7878;44.632;10.942;2022-12-29T17:37:04;12.20;99.90
15554;DHT22;7878;44.632;10.942;2022-12-29T17:39:33;12.20;99.90
15554;DHT22;7878;44.632;10.942;2022-12-29T17:41:59;12.20;99.90
15554;DHT22;7878;44.632;10.942;2022-12-29T17:44:25;12.20;99.90
15554;DHT22;7878;44.632;10.942;2022-12-29T17:46:51;12.20;99.90
15554;DHT22;7878;44.632;10.942;2022-12-29T17:49:17;12.20;99.90
15554;DHT22;7878;44.632;10.942;2022-12-29T17:51:44;12.20;99.90
15554;DHT22;7878;44.632;10.942;2022-12-29T17:54:24;12.20;99.90
15554;DHT22;7878;44.632;10.942;2022-12-29T17:56:50;12.30;99.90
15554;DHT22;7878;44.632;10.942;2022-12-29T17:59:17;12.30;99.90
15554;DHT22;7878;44.632;10.942;2022-12-29T18:01:44;12.30;99.90
15554;DHT22;7878;44.632;10.942;2022-12-29T18:04:16;12.30;99.90
15554;DHT22;7878;44.632;10.942;2022-12-29T18:06:43;12.30;99.90
15554;DHT22;7878;44.632;10.942;2022-12-29T18:09:09;12.30;99.90
15554;DHT22;7878;44.632;10.942;2022-12-29T18:11:38;12.30;99.90
15554;DHT22;7878;44.632;10.942;2022-12-29T18:14:07;12.30;99.90
15554;DHT22;7878;44.632;10.942;2022-12-29T18:16:33;12.30;99.90
15554;DHT22;7878;44.632;10.942;2022-12-29T18:18:59;12.40;99.90
15554;DHT22;7878;44.632;10.942;2022-12-29T18:21:25;12.30;99.90
15554;DHT22;7878;44.632;10.942;2022-12-29T18:23:51;12.30;99.90
15554;DHT22;7878;44.632;10.942;2022-12-29T18:26:20;12.30;99.90